Desert Aire, Washington
Current Conditions -  °F | °C
As of 3:20 PM on Wednesday 22 Oct 2014 (Local Time) from K1YT Reporting Station
Rain Showers Rain Showers  
Wind Chill: 55°   Ceiling: 4500
Heat Index: 55°   Visibility: 10mi
Dew Point: 50°   Wind: 1mph
Humidity: 82%   Direction: NA
Pressure: 29.74"   Gusts: NA
Location:  46.6873°N, 119.887°W
Report Text: K1YT 222220Z AUTO VRB01KT 10SM -SHRA BKN045 13/10 A2974 RMK AO2 LTG DSNT W
Loading
Personal Weather Stations






























Interactive Weather Map New forecast layout! Learn more

10-Day Weather Forecast

Advertisements
Track Severe Weather on mobile